Terminal Aerodrome Forecast
Issued by NWS

Home | Current Version | Previous Version | Text Only | Print | Product List | Glossary On
Versions: 1 2 3 4 5 6 7 8 9 10 11 12 13 14 15 16 17 18 19
000
FTUS46 KSEW 252300
TAFHQM
TAF
KHQM 252330Z 2600/2624 18032G48KT 4SM -RA BR BKN010 OVC028
     FM260100 25032G48KT 2SM -RA BR BKN010 OVC025
     FM260600 24022G33KT P6SM -RA BKN020 OVC035
     FM261200 23014G22KT P6SM -SHRA BKN015 BKN035=

USA.gov is the U.S. government's official web portal to all federal, state and local government web resources and services.